Fort McPherson, Canada
Current Conditions -  °F | °C
As of 4:00 PM on Monday 20 Oct 2014 (Local Time) from CYEV Reporting Station
Light Snow Light Snow  
Wind Chill: 18°   Ceiling: 1500
Heat Index: 28°   Visibility: 15mi
Dew Point: 23°   Wind: 12mph
Humidity: 80%   Direction: 50°NE
Pressure: 29.51"   Gusts: 23mph
Location:  67.44°N, 134.88°W
Report Text: CYEV 202200Z 05010G20KT 15SM -SN DRSN BKN015 OVC066 M02/M05 A2951 RMK SC6AC2 SLP000
Loading
Personal Weather Stations






























Interactive Weather Map
Tropical Storm Tracking
New forecast layout! Learn more

10-Day Weather Forecast

Advertisements
Track Severe Weather on mobile